Time;durP1;ratioP1;P1;durP2;ratioP2;P2;SDS_P1;SDS_P2;PMS_P1;PMS_P2;Temp;Humidity;BMP_temperature;BMP_pressure;BME280_temperature;BME280_humidity;BME280_pressure;Samples;Min_cycle;Max_cycle;Signal;HPM_P1;HPM_P2
2021/03/20 00:01:41;;;;;;;12.30;10.02;;;;;;;-1.91;80.90;95687.66;5049792;28;20029;-62
2021/03/20 00:04:07;;;;;;;14.00;10.15;;;;;;;-1.95;81.13;95697.69;5050603;28;20036;-62
2021/03/20 00:06:37;;;;;;;14.07;9.45;;;;;;;-1.74;81.17;95756.53;5048402;28;20041;-64
2021/03/20 00:09:11;;;;;;;14.88;10.40;;;;;;;-1.52;80.35;95724.88;5049316;28;20040;-63
2021/03/20 00:11:39;;;;;;;11.82;8.65;;;;;;;-2.10;80.59;95685.00;5049477;28;20045;-62
2021/03/20 00:14:05;;;;;;;16.02;10.02;;;;;;;-2.41;80.53;95644.06;5049760;28;20103;-63
2021/03/20 00:16:31;;;;;;;12.40;10.18;;;;;;;-1.39;79.33;95743.00;5049523;28;20033;-63
2021/03/20 00:18:57;;;;;;;15.35;10.45;;;;;;;-1.00;78.94;95767.16;5051335;28;20447;-62
2021/03/20 00:21:23;;;;;;;15.00;10.13;;;;;;;-1.36;80.42;95763.47;5049154;28;20136;-64
2021/03/20 00:23:49;;;;;;;12.32;10.20;;;;;;;-1.77;80.32;95740.50;5049495;28;20144;-62
2021/03/20 00:26:15;;;;;;;13.18;9.98;;;;;;;-1.63;80.41;95736.78;5048044;28;20115;-63
2021/03/20 00:28:40;;;;;;;16.02;10.82;;;;;;;-1.68;79.45;95727.00;5047713;28;20467;-64
2021/03/20 00:31:11;;;;;;;15.23;10.25;;;;;;;-1.30;79.69;95770.44;5051235;28;20052;-64
2021/03/20 00:33:42;;;;;;;12.13;10.07;;;;;;;-1.62;81.01;95772.31;5064523;28;20748;-64
2021/03/20 00:36:09;;;;;;;12.07;10.63;;;;;;;-1.18;78.91;95760.88;5049230;28;20045;-62
2021/03/20 00:38:35;;;;;;;13.75;10.43;;;;;;;-1.16;78.58;95779.75;5048870;28;20037;-63
2021/03/20 00:41:00;;;;;;;12.88;11.50;;;;;;;-1.24;79.36;95769.56;5048784;28;20513;-64
2021/03/20 00:43:27;;;;;;;14.10;11.15;;;;;;;-0.98;77.81;95776.38;5050890;28;20056;-62
2021/03/20 00:45:53;;;;;;;16.15;12.55;;;;;;;-1.42;78.42;95723.38;5049222;28;20053;-65
2021/03/20 00:48:25;;;;;;;14.05;10.70;;;;;;;-1.21;77.64;95763.94;5048672;28;20040;-65
2021/03/20 00:50:51;;;;;;;15.88;10.23;;;;;;;-1.47;79.38;95785.03;5048720;28;20128;-65
2021/03/20 00:53:18;;;;;;;12.73;9.63;;;;;;;-1.71;79.80;95765.75;5048732;28;20479;-64
2021/03/20 00:55:43;;;;;;;13.05;10.57;;;;;;;-1.44;79.12;95784.59;5049110;28;20028;-65
2021/03/20 00:58:33;;;;;;;14.35;11.35;;;;;;;-1.18;78.16;95784.38;5050589;28;20025;-64
2021/03/20 01:01:08;;;;;;;14.73;10.40;;;;;;;-1.48;78.31;95765.19;5064467;28;20495;-63
2021/03/20 01:03:37;;;;;;;16.48;10.82;;;;;;;-1.38;78.67;95755.88;5047887;28;20037;-63
2021/03/20 01:06:03;;;;;;;12.23;10.63;;;;;;;-1.01;77.23;95781.25;5048708;28;20383;-63
2021/03/20 01:08:28;;;;;;;17.17;10.73;;;;;;;-1.44;77.55;95756.69;5046862;28;20037;-62
2021/03/20 01:10:54;;;;;;;13.30;11.00;;;;;;;-1.40;77.31;95728.38;5048448;28;20064;-63
2021/03/20 01:13:19;;;;;;;14.85;11.82;;;;;;;-1.05;77.56;95771.22;5050466;28;20104;-64
2021/03/20 01:15:45;;;;;;;12.35;11.02;;;;;;;-1.60;78.09;95747.59;5048828;28;20044;-63
2021/03/20 01:18:11;;;;;;;13.38;10.98;;;;;;;-1.29;77.67;95779.06;5046976;28;20072;-63
2021/03/20 01:20:37;;;;;;;16.88;11.73;;;;;;;-1.29;77.74;95779.06;5048563;28;20045;-64
2021/03/20 01:23:04;;;;;;;14.85;10.52;;;;;;;-2.04;79.40;95732.06;5048368;28;20044;-64
2021/03/20 01:25:30;;;;;;;12.25;10.18;;;;;;;-1.97;80.86;95764.09;5050377;28;20028;-63
2021/03/20 01:27:55;;;;;;;12.80;11.43;;;;;;;-1.78;79.60;95752.75;5048663;28;20062;-62
2021/03/20 01:30:25;;;;;;;14.50;10.38;;;;;;;-1.57;79.79;95780.28;5048464;28;20037;-64
2021/03/20 01:32:50;;;;;;;12.85;10.85;;;;;;;-1.72;78.86;95757.13;5063675;28;20518;-65
2021/03/20 01:35:16;;;;;;;17.38;12.70;;;;;;;-1.31;78.70;95781.91;5048499;28;20037;-63
2021/03/20 01:37:41;;;;;;;14.25;11.55;;;;;;;-1.62;78.61;95748.81;5048110;28;20025;-63
2021/03/20 01:40:08;;;;;;;16.65;12.18;;;;;;;-1.44;77.74;95755.91;5050170;28;20108;-63
2021/03/20 01:42:34;;;;;;;12.90;10.98;;;;;;;-1.66;79.11;95784.97;5046764;28;20040;-63
2021/03/20 01:45:18;;;;;;;14.55;11.52;;;;;;;-1.72;79.18;95762.34;5048450;28;20033;-62
2021/03/20 01:47:48;;;;;;;16.08;11.77;;;;;;;-1.64;79.11;95771.69;5046600;28;20029;-62
2021/03/20 01:50:21;;;;;;;16.77;12.25;;;;;;;-1.63;78.76;95762.88;5048109;28;20030;-62
2021/03/20 01:52:50;;;;;;;22.42;13.05;;;;;;;-1.52;78.54;95784.88;5046969;28;20045;-63
2021/03/20 01:55:17;;;;;;;16.65;12.45;;;;;;;-1.49;78.08;95766.97;5050333;28;20039;-63
2021/03/20 01:57:52;;;;;;;17.70;12.57;;;;;;;-1.59;79.11;95782.28;5046694;28;20045;-63
2021/03/20 02:00:35;;;;;;;17.10;11.98;;;;;;;-1.75;77.98;95754.91;5048436;28;20047;-62
2021/03/20 02:03:03;;;;;;;;;;;;;;;-1.61;78.83;95777.28;5047219;28;20110;-60
2021/03/20 02:05:31;;;;;;;18.08;11.98;;;;;;;-1.59;79.20;95774.47;5046747;28;19970;-63
2021/03/20 02:07:58;;;;;;;15.60;11.57;;;;;;;-1.71;79.50;95768.34;5047806;28;20037;-62
2021/03/20 02:10:27;;;;;;;18.63;12.63;;;;;;;-1.66;79.45;95782.34;5050200;28;20043;-60
2021/03/20 02:13:01;;;;;;;14.60;11.63;;;;;;;-1.61;79.14;95774.69;5048164;28;20471;-63
2021/03/20 02:16:21;;;;;;;15.95;11.25;;;;;;;-1.46;79.83;95776.19;5049875;28;20048;-62
2021/03/20 02:19:01;;;;;;;16.02;11.57;;;;;;;-1.27;78.83;95770.03;4973706;28;20559;-62
2021/03/20 02:21:49;;;;;;;16.15;11.88;;;;;;;-1.08;78.04;95755.97;5051538;28;20043;-62
2021/03/20 02:24:44;;;;;;;13.63;11.32;;;;;;;-1.00;77.72;95804.53;5051419;28;20411;-62
2021/03/20 02:27:46;;;;;;;14.50;11.55;;;;;;;-1.31;78.31;95787.13;5051715;28;20466;-62
2021/03/20 02:30:24;;;;;;;;;;;;;;;-1.33;78.26;95789.94;5051976;28;20424;-61
2021/03/20 02:33:04;;;;;;;12.77;10.98;;;;;;;-1.45;78.69;95780.41;5051628;28;19920;-62
2021/03/20 02:35:50;;;;;;;14.13;11.55;;;;;;;-1.40;78.87;95794.41;5051643;28;20037;-61
2021/03/20 02:38:52;;;;;;;19.08;11.70;;;;;;;-1.58;79.34;95766.44;5051341;28;20045;-63
2021/03/20 02:41:33;;;;;;;15.23;10.65;;;;;;;-1.58;79.54;95789.94;5049954;28;20045;-61
2021/03/20 02:44:18;;;;;;;15.00;11.40;;;;;;;-1.41;78.45;95771.13;5051315;28;20041;-63
2021/03/20 02:47:01;;;;;;;17.67;13.00;;;;;;;-1.64;78.70;95716.91;5051163;28;20036;-62
2021/03/20 02:49:50;;;;;;;16.02;11.77;;;;;;;-1.35;78.37;95785.94;5053184;28;20028;-62
2021/03/20 02:52:25;;;;;;;13.98;12.00;;;;;;;-1.24;79.34;95782.63;5051470;28;20041;-62
2021/03/20 02:55:00;;;;;;;15.35;12.30;;;;;;;-1.07;78.44;95794.16;5051239;28;20033;-62
2021/03/20 02:57:32;;;;;;;16.15;11.70;;;;;;;-0.90;77.73;95783.13;5050949;28;20044;-62
2021/03/20 03:00:04;;;;;;;15.07;12.13;;;;;;;-1.14;78.58;95782.94;5051015;28;20068;-62
2021/03/20 03:02:32;;;;;;;16.10;12.30;;;;;;;-1.19;79.09;95795.03;5050913;28;20037;-62
2021/03/20 03:05:13;;;;;;;18.20;12.25;;;;;;;-1.19;77.93;95767.13;5051133;28;20040;-62
2021/03/20 03:07:50;;;;;;;15.40;11.77;;;;;;;-1.13;77.12;95741.97;5049820;28;20029;-62
2021/03/20 03:10:33;;;;;;;14.88;12.10;;;;;;;-0.82;77.45;95790.69;5052804;28;20061;-62
2021/03/20 03:13:05;;;;;;;16.48;12.35;;;;;;;-0.69;76.48;95777.50;5051119;28;20112;-63
2021/03/20 03:15:35;;;;;;;10.93;9.43;;;;;;;-0.38;76.25;95791.44;5052161;28;20033;-63
2021/03/20 03:18:08;;;;;;;17.90;11.90;;;;;;;-0.33;76.30;95787.13;5057481;22;20045;-74
2021/03/20 03:20:41;;;;;;;14.82;11.23;;;;;;;-0.78;76.11;95778.78;5032079;28;20048;-76
2021/03/20 03:23:17;;;;;;;14.65;11.38;;;;;;;-0.97;76.85;95792.84;5032123;28;20060;-76
2021/03/20 03:25:46;;;;;;;15.57;11.80;;;;;;;-1.01;77.55;95781.25;5032267;28;20112;-75
2021/03/20 03:28:19;;;;;;;15.30;10.75;;;;;;;-0.80;77.23;95793.88;5013662;28;20027;-77
2021/03/20 03:30:45;;;;;;;12.90;11.32;;;;;;;-1.12;77.89;95795.81;5012585;28;20046;-77
2021/03/20 03:33:31;;;;;;;17.13;11.88;;;;;;;-0.65;77.07;95798.75;4998734;28;20480;-74
2021/03/20 03:36:11;;;;;;;13.93;10.35;;;;;;;-0.52;76.55;95799.41;5004505;28;20129;-74
2021/03/20 03:38:46;;;;;;;13.25;11.50;;;;;;;-0.72;76.50;95793.59;4994705;28;20038;-77
2021/03/20 03:41:19;;;;;;;13.10;11.18;;;;;;;-0.70;76.67;95791.56;5006476;28;20034;-75
2021/03/20 03:43:45;;;;;;;12.20;10.65;;;;;;;-0.49;76.38;95794.78;4994927;28;20053;-76
2021/03/20 03:46:12;;;;;;;15.00;11.43;;;;;;;-0.22;75.86;95790.03;5014164;28;20472;-77
2021/03/20 03:48:38;;;;;;;15.45;11.32;;;;;;;-0.49;75.30;95795.56;5011833;28;20041;-74
2021/03/20 03:51:16;;;;;;;12.95;10.70;;;;;;;-0.55;75.90;95791.22;5011991;28;20042;-76
2021/03/20 03:53:42;;;;;;;14.52;11.15;;;;;;;-0.55;76.30;95801.66;5002302;28;20475;-74
2021/03/20 03:56:38;;;;;;;12.25;10.35;;;;;;;-0.27;75.97;95788.88;4996794;28;20062;-74
2021/03/20 03:59:24;;;;;;;12.73;11.27;;;;;;;-0.20;75.35;95788.81;5011229;28;20042;-74
2021/03/20 04:02:07;;;;;;;12.05;10.73;;;;;;;-0.01;75.18;95782.50;5011838;28;20534;-74
2021/03/20 04:04:57;;;;;;;14.20;9.30;;;;;;;-0.63;76.23;95796.72;5011738;28;20029;-74
2021/03/20 04:07:38;;;;;;;11.07;9.48;;;;;;;-0.41;75.33;95797.91;5013433;28;20026;-75
2021/03/20 04:10:31;;;;;;;9.52;8.23;;;;;;;-0.75;76.69;95783.59;5012093;28;20129;-75
2021/03/20 04:13:00;;;;;;;12.00;9.68;;;;;;;-0.36;75.72;95765.84;5012135;28;20034;-74
2021/03/20 04:15:38;;;;;;;10.18;8.73;;;;;;;-0.35;75.63;95797.03;4995984;28;20031;-75
2021/03/20 04:18:25;;;;;;;10.63;9.52;;;;;;;-0.43;75.69;95804.34;5004440;28;20518;-74
2021/03/20 04:21:10;;;;;;;11.13;9.35;;;;;;;-0.32;75.78;95804.41;5011227;28;20053;-75
2021/03/20 04:23:59;;;;;;;12.27;9.65;;;;;;;-0.66;76.53;95782.28;5016120;28;20117;-73
2021/03/20 04:26:45;;;;;;;12.88;10.05;;;;;;;-0.33;76.23;95807.25;4980259;28;20026;-73
2021/03/20 04:29:18;;;;;;;12.85;10.15;;;;;;;-0.70;78.61;95812.47;4993218;28;20096;-72
2021/03/20 04:31:59;;;;;;;11.85;9.77;;;;;;;-1.35;80.26;95815.44;5008705;28;20060;-73
2021/03/20 04:34:30;;;;;;;10.15;8.07;;;;;;;-1.38;81.27;95815.09;4992534;28;20480;-72
2021/03/20 04:37:10;;;;;;;14.05;10.18;;;;;;;-1.03;80.13;95796.31;4990716;28;20046;-72
2021/03/20 04:39:42;;;;;;;13.02;9.48;;;;;;;-1.47;81.84;95798.09;4989140;28;20038;-73
2021/03/20 04:42:10;;;;;;;11.20;8.70;;;;;;;-1.12;81.27;95807.03;4992531;28;20096;-72
2021/03/20 04:44:36;;;;;;;11.40;9.77;;;;;;;-0.75;79.67;95807.09;4992292;28;20057;-73
2021/03/20 04:47:07;;;;;;;12.68;10.20;;;;;;;-0.89;79.80;95816.88;4992057;28;20037;-72
2021/03/20 04:49:40;;;;;;;13.02;10.32;;;;;;;-1.08;80.76;95815.22;4992398;28;20049;-73
2021/03/20 04:52:23;;;;;;;11.25;9.73;;;;;;;-1.39;80.97;95811.66;4993943;28;20072;-72
2021/03/20 04:54:49;;;;;;;12.63;9.77;;;;;;;-1.07;81.28;95809.00;5025163;28;20434;-72
2021/03/20 04:57:43;;;;;;;11.75;8.65;;;;;;;-1.45;82.42;95822.16;5009603;28;20034;-72
2021/03/20 05:00:26;;;;;;;16.77;10.40;;;;;;;-0.80;81.30;95822.63;5009917;28;20042;-73
2021/03/20 05:03:01;;;;;;;12.52;9.65;;;;;;;-0.77;80.44;95824.78;5009503;28;20490;-73
2021/03/20 05:05:49;;;;;;;12.38;9.40;;;;;;;-1.54;82.13;95816.38;5009848;28;20030;-74
2021/03/20 05:08:36;;;;;;;10.05;9.05;;;;;;;-1.68;83.32;95833.16;5003463;28;20039;-75
2021/03/20 05:11:36;;;;;;;11.52;9.63;;;;;;;-1.20;81.80;95837.81;4977142;28;20034;-74
2021/03/20 05:14:19;;;;;;;10.65;9.02;;;;;;;-1.32;81.17;95830.69;5009710;28;20034;-74
2021/03/20 05:17:01;;;;;;;12.15;9.15;;;;;;;-1.02;80.65;95837.88;5009427;28;20475;-75
2021/03/20 05:19:28;;;;;;;11.52;8.65;;;;;;;-1.08;79.96;95838.72;5011647;28;20060;-73
2021/03/20 05:21:55;;;;;;;12.88;8.57;;;;;;;-1.04;80.30;95839.91;4991785;28;20042;-74
2021/03/20 05:24:22;;;;;;;11.13;8.68;;;;;;;-1.06;80.36;95836.72;5009551;28;20038;-74
2021/03/20 05:26:48;;;;;;;9.98;7.63;;;;;;;-1.68;81.71;95833.94;4999007;28;20069;-74
2021/03/20 05:29:13;;;;;;;9.50;7.80;;;;;;;-2.01;82.94;95828.09;4978039;28;20068;-74
2021/03/20 05:31:39;;;;;;;12.65;8.52;;;;;;;-1.64;81.91;95836.91;4990196;28;20029;-74
2021/03/20 05:34:29;;;;;;;10.95;8.32;;;;;;;-1.47;82.53;95834.63;4974490;28;20050;-74
2021/03/20 05:36:55;;;;;;;10.35;7.32;;;;;;;-1.52;81.01;95837.06;4989615;28;20050;-74
2021/03/20 05:39:21;;;;;;;9.57;7.78;;;;;;;-1.80;82.22;95830.38;5003457;28;20072;-74
2021/03/20 05:42:06;;;;;;;8.60;7.68;;;;;;;-1.80;82.13;95842.63;4991786;28;20049;-74
2021/03/20 05:44:52;;;;;;;8.57;6.93;;;;;;;-1.96;83.01;95842.09;5001280;28;20125;-74
2021/03/20 05:47:58;;;;;;;10.32;8.45;;;;;;;-1.39;82.13;95845.56;4989597;28;20104;-74
2021/03/20 05:51:00;;;;;;;12.75;8.60;;;;;;;-1.09;81.04;95848.38;4991356;28;20534;-74
2021/03/20 05:53:44;;;;;;;11.63;8.55;;;;;;;-1.39;80.25;95852.59;4983360;28;20033;-74
2021/03/20 05:56:16;;;;;;;8.05;5.35;;;;;;;-2.30;80.59;95855.47;5007647;28;20070;-74
2021/03/20 05:58:53;;;;;;;6.93;4.25;;;;;;;-2.53;80.16;95855.94;4993247;28;20483;-74
2021/03/20 06:01:24;;;;;;;4.88;4.40;;;;;;;-2.64;80.94;95865.97;4977801;28;20372;-74
2021/03/20 06:04:32;;;;;;;6.72;5.60;;;;;;;-2.53;79.68;95858.53;5012477;28;20585;-74
2021/03/20 06:07:28;;;;;;;4.95;3.83;;;;;;;-2.17;77.73;95866.66;5012683;28;20044;-74
2021/03/20 06:10:00;;;;;;;5.72;4.82;;;;;;;-2.16;78.51;95868.25;5008539;28;20042;-74
2021/03/20 06:12:46;;;;;;;5.65;4.93;;;;;;;-2.58;76.43;95877.38;4991555;28;20046;-74
2021/03/20 06:15:12;;;;;;;5.50;4.55;;;;;;;-2.72;77.13;95876.59;5011918;28;20658;-74
2021/03/20 06:18:00;;;;;;;4.00;2.40;;;;;;;-2.84;77.45;95867.81;4995081;28;20124;-73
2021/03/20 06:20:44;;;;;;;5.50;3.58;;;;;;;-2.74;76.95;95886.41;4995274;28;20129;-75
2021/03/20 06:23:09;;;;;;;5.63;4.18;;;;;;;-2.36;76.23;95870.91;5007576;28;20484;-74
2021/03/20 06:25:56;;;;;;;5.45;3.50;;;;;;;-3.07;75.87;95886.44;4992839;28;20019;-74
2021/03/20 06:28:29;;;;;;;4.95;4.47;;;;;;;-2.93;76.50;95882.03;4994839;28;20192;-74
2021/03/20 06:31:00;;;;;;;5.70;5.15;;;;;;;-2.88;76.48;95884.81;4991673;28;20400;-74
2021/03/20 06:33:28;;;;;;;7.90;5.15;;;;;;;-2.66;74.43;95894.03;4979296;28;20043;-74
2021/03/20 06:36:23;;;;;;;4.40;4.00;;;;;;;-2.59;74.54;95893.22;5004100;28;20050;-74
2021/03/20 06:39:17;;;;;;;3.72;3.05;;;;;;;-2.64;74.74;95899.84;4974812;28;20402;-74
2021/03/20 06:41:45;;;;;;;6.28;4.85;;;;;;;-1.61;72.44;95897.28;5002427;28;20125;-74
2021/03/20 06:44:22;;;;;;;4.53;4.13;;;;;;;-2.16;70.82;95883.88;5012450;28;20040;-73
2021/03/20 06:46:48;;;;;;;4.95;3.88;;;;;;;-2.12;72.59;95898.09;5012146;28;20049;-74
2021/03/20 06:49:35;;;;;;;3.85;3.10;;;;;;;-2.43;73.16;95914.41;5014175;28;20746;-73
2021/03/20 06:52:02;;;;;;;3.53;3.17;;;;;;;-1.92;71.40;95913.69;5012319;28;20045;-73
2021/03/20 06:54:29;;;;;;;5.25;4.07;;;;;;;-2.41;72.81;95907.19;4995972;28;20507;-74
2021/03/20 06:56:54;;;;;;;7.68;4.95;;;;;;;-1.95;72.93;95913.28;4986424;28;20037;-70
2021/03/20 06:59:23;;;;;;;4.90;4.40;;;;;;;-1.57;71.78;95914.13;4994522;28;20033;-72
2021/03/20 07:01:48;;;;;;;4.03;3.42;;;;;;;-1.75;70.34;95918.44;5010255;28;20022;-70
2021/03/20 07:04:32;;;;;;;4.70;4.30;;;;;;;-1.29;70.26;95914.78;5014479;28;20037;-81
2021/03/20 07:07:06;;;;;;;4.32;3.88;;;;;;;-0.90;68.91;95924.16;5012435;28;20084;-72
2021/03/20 07:09:33;;;;;;;6.10;5.22;;;;;;;-0.91;68.33;95927.78;5011702;28;20100;-72
2021/03/20 07:12:15;;;;;;;5.40;4.55;;;;;;;-0.94;68.40;95923.78;4999220;28;20038;-72
2021/03/20 07:14:56;;;;;;;6.95;4.82;;;;;;;-0.20;66.54;95926.59;4984322;28;20112;-73
2021/03/20 07:17:21;;;;;;;5.20;4.70;;;;;;;-1.61;69.86;95928.59;5010946;28;20033;-72
2021/03/20 07:20:13;;;;;;;4.68;4.18;;;;;;;-1.23;68.77;95943.44;5009105;28;20371;-71
2021/03/20 07:22:38;;;;;;;4.85;4.22;;;;;;;-1.13;67.20;95937.75;4991573;28;20034;-70
2021/03/20 07:25:24;;;;;;;6.13;4.43;;;;;;;-1.24;67.86;95944.47;4993687;28;20019;-71
2021/03/20 07:27:55;;;;;;;5.05;4.63;;;;;;;-0.63;66.48;95943.03;4993002;28;20141;-76
2021/03/20 07:30:32;;;;;;;5.43;4.80;;;;;;;-0.02;65.83;95953.53;5011905;28;20052;-76
2021/03/20 07:32:58;;;;;;;8.00;4.70;;;;;;;0.04;64.34;95951.06;5026684;28;20057;-73
2021/03/20 07:35:35;;;;;;;5.18;4.78;;;;;;;0.08;62.69;95932.09;5009831;28;20104;-72
2021/03/20 07:38:19;;;;;;;7.13;3.97;;;;;;;-0.04;62.41;95952.16;5011291;28;20040;-74
2021/03/20 07:40:44;;;;;;;4.35;3.88;;;;;;;-0.24;64.09;95946.31;4993395;28;20049;-72
2021/03/20 07:43:13;;;;;;;6.65;4.55;;;;;;;-0.43;63.78;95941.06;5012693;28;20050;-67
2021/03/20 07:45:38;;;;;;;4.43;3.30;;;;;;;-1.58;66.76;95956.09;5010810;28;20026;-69
2021/03/20 07:48:13;;;;;;;5.38;4.25;;;;;;;-1.65;68.50;95947.47;5010922;28;20392;-70
2021/03/20 07:50:46;;;;;;;5.03;4.30;;;;;;;-1.70;68.12;95958.53;5010725;28;20069;-70
2021/03/20 07:53:19;;;;;;;5.10;4.43;;;;;;;-1.04;66.45;95957.41;5010359;28;20076;-68
2021/03/20 07:56:05;;;;;;;5.63;4.65;;;;;;;-2.27;68.65;95978.34;5010225;28;20034;-68
2021/03/20 07:58:42;;;;;;;3.97;3.67;;;;;;;-2.43;68.57;95976.16;5010317;28;20061;-73
2021/03/20 08:01:30;;;;;;;5.07;4.57;;;;;;;-1.67;67.01;95965.94;5011098;28;20388;-67
2021/03/20 08:03:59;;;;;;;8.88;4.93;;;;;;;-1.19;66.77;95939.41;4989907;28;20128;-65
2021/03/20 08:06:34;;;;;;;5.72;4.55;;;;;;;-1.10;64.67;95974.69;4989419;28;20046;-67
2021/03/20 08:09:21;;;;;;;6.22;4.53;;;;;;;-1.11;65.04;95986.16;5002642;28;20061;-67
2021/03/20 08:11:56;;;;;;;5.35;4.85;;;;;;;-0.93;65.65;95977.59;4999428;28;20042;-68
2021/03/20 08:14:25;;;;;;;6.15;4.45;;;;;;;-0.60;64.63;95979.19;4990178;28;20030;-67
2021/03/20 08:16:51;;;;;;;5.85;5.28;;;;;;;-0.08;63.88;95980.56;4973356;28;20097;-71
2021/03/20 08:19:18;;;;;;;4.30;3.90;;;;;;;-0.28;62.41;95993.00;4993203;28;20038;-76
2021/03/20 08:21:59;;;;;;;7.00;4.55;;;;;;;-0.01;62.84;95991.72;4992108;28;20566;-77
2021/03/20 08:24:31;;;;;;;4.93;3.60;;;;;;;-0.02;61.05;95976.28;4993381;28;20117;-70
2021/03/20 08:27:03;;;;;;;4.05;3.75;;;;;;;0.31;61.45;95993.44;4992419;28;20065;-71
2021/03/20 08:29:48;;;;;;;4.00;3.63;;;;;;;1.18;58.91;95976.44;5010607;28;20096;-73
2021/03/20 08:32:35;;;;;;;3.85;3.35;;;;;;;2.16;55.67;95988.13;5004691;28;20408;-76
2021/03/20 08:35:17;;;;;;;4.28;3.97;;;;;;;2.59;54.93;95984.28;4991720;28;20392;-76
2021/03/20 08:37:52;;;;;;;4.07;3.78;;;;;;;2.57;53.05;95960.88;4993305;28;20031;-68
2021/03/20 08:40:31;;;;;;;4.55;3.72;;;;;;;0.75;56.19;96006.19;5012219;28;20419;-79
2021/03/20 08:43:30;;;;;;;4.45;4.05;;;;;;;0.48;58.13;95982.16;5010242;28;20042;-73
2021/03/20 08:46:00;;;;;;;3.85;3.55;;;;;;;1.73;55.16;96001.59;5010496;28;20096;-71
2021/03/20 08:48:59;;;;;;;3.63;3.33;;;;;;;2.16;53.74;96000.47;5006100;28;20333;-73
2021/03/20 08:51:55;;;;;;;3.78;3.47;;;;;;;1.01;57.23;95978.06;5009938;28;20042;-74
2021/03/20 08:54:45;;;;;;;4.40;3.90;;;;;;;2.07;54.17;95974.56;5004871;28;20050;-73
2021/03/20 08:57:30;;;;;;;3.30;3.10;;;;;;;1.37;53.37;96002.53;5009810;28;20128;-82
2021/03/20 08:59:58;;;;;;;4.22;3.83;;;;;;;1.63;52.90;95939.19;5009864;28;20128;-73
2021/03/20 09:02:23;;;;;;;3.45;3.15;;;;;;;0.97;55.21;95963.81;4991702;28;20491;-73
2021/03/20 09:05:13;;;;;;;3.72;3.42;;;;;;;1.01;55.31;96010.28;5025611;28;20060;-77
2021/03/20 09:07:45;;;;;;;5.13;3.85;;;;;;;0.62;57.69;96010.81;4995702;28;20059;-72
2021/03/20 09:10:16;;;;;;;;;;;;;;;-0.44;57.97;96023.09;5012477;28;20395;-74
2021/03/20 09:12:46;;;;;;;3.63;3.33;;;;;;;-0.69;60.35;96017.84;5009685;28;19921;-72
2021/03/20 09:15:33;;;;;;;3.55;3.25;;;;;;;-1.03;60.47;96013.03;5009881;28;20096;-73
2021/03/20 09:18:01;;;;;;;5.43;3.70;;;;;;;-0.36;59.90;96029.84;4991407;28;20057;-73
2021/03/20 09:20:48;;;;;;;5.13;3.88;;;;;;;-0.36;59.25;96022.00;5009195;28;20041;-73
2021/03/20 09:23:26;;;;;;;3.10;2.47;;;;;;;-0.91;58.85;96020.00;5008077;28;20464;-72
2021/03/20 09:26:01;;;;;;;4.18;3.78;;;;;;;-0.26;58.03;96024.94;5008020;28;20042;-71
2021/03/20 09:28:52;;;;;;;5.18;3.70;;;;;;;-0.67;60.28;96018.41;5011238;28;20204;-71
2021/03/20 09:31:30;;;;;;;4.90;4.25;;;;;;;0.55;58.72;96017.94;5009790;28;20049;-71
2021/03/20 09:33:59;;;;;;;5.95;3.30;;;;;;;1.15;55.64;96021.41;5010348;28;20053;-70
2021/03/20 09:36:27;;;;;;;6.13;4.00;;;;;;;1.45;53.57;96016.13;5010791;28;20120;-76
2021/03/20 09:38:55;;;;;;;4.25;3.50;;;;;;;2.24;51.76;96003.53;4999167;28;20047;-75
2021/03/20 09:41:21;;;;;;;4.22;3.92;;;;;;;2.05;53.02;96010.75;5005761;28;20049;-69
2021/03/20 09:44:09;;;;;;;3.40;3.10;;;;;;;2.41;50.68;96014.13;5011903;28;20022;-72
2021/03/20 09:46:35;;;;;;;3.22;3.03;;;;;;;2.62;49.03;96006.69;5009947;28;20542;-74
2021/03/20 09:49:22;;;;;;;4.03;3.53;;;;;;;2.43;49.50;96012.06;5011707;28;20022;-68
2021/03/20 09:54:22;;;;;;;3.97;3.63;;;;;;;1.39;52.51;96022.28;5009813;28;20137;-72
2021/03/20 09:56:51;;;;;;;4.47;4.07;;;;;;;1.22;53.97;96010.81;5009539;28;20531;-68
2021/03/20 09:59:42;;;;;;;5.25;4.85;;;;;;;1.36;53.38;96025.34;5009957;28;20030;-72
2021/03/20 10:02:10;;;;;;;4.68;4.28;;;;;;;1.39;54.09;96018.88;4983719;28;20053;-78
2021/03/20 10:04:55;;;;;;;3.97;3.65;;;;;;;-0.02;55.47;96034.59;5010180;28;20030;-75
2021/03/20 10:07:20;;;;;;;4.05;3.45;;;;;;;-0.14;54.61;96023.25;5011717;28;20464;-77
2021/03/20 10:10:04;;;;;;;3.45;3.15;;;;;;;0.63;54.12;96028.91;5009512;28;20088;-77
2021/03/20 10:12:44;;;;;;;3.53;3.05;;;;;;;-0.51;55.46;96011.91;5009599;28;20113;-78
2021/03/20 10:15:14;;;;;;;5.10;3.53;;;;;;;0.18;55.85;96023.16;5009249;28;20069;-72
2021/03/20 10:17:56;;;;;;;6.68;3.88;;;;;;;0.76;53.25;96022.72;5008846;28;20125;-73
2021/03/20 10:20:25;;;;;;;4.13;3.28;;;;;;;1.54;53.41;96019.25;4990976;28;20046;-78
2021/03/20 10:23:03;;;;;;;4.25;3.85;;;;;;;-0.31;60.96;96022.19;5008442;28;21510;-73
2021/03/20 10:25:32;;;;;;;5.00;4.50;;;;;;;0.66;60.93;96014.56;4993892;28;20033;-74
2021/03/20 10:28:04;;;;;;;4.97;4.47;;;;;;;-0.44;62.19;96028.31;4993051;28;20051;-70
2021/03/20 10:30:31;;;;;;;;;;;;;;;-0.39;61.41;96036.31;4992418;28;20042;-69
2021/03/20 10:32:59;;;;;;;4.63;4.15;;;;;;;-0.17;62.66;96028.91;5009277;28;19922;-72
2021/03/20 10:35:25;;;;;;;4.78;4.40;;;;;;;-0.47;63.44;96033.97;5009507;28;20034;-70
2021/03/20 10:37:50;;;;;;;16.88;5.28;;;;;;;-0.85;64.38;96028.81;5012944;28;20133;-73
2021/03/20 10:40:27;;;;;;;5.50;5.00;;;;;;;0.56;61.87;96025.56;5015176;28;20164;-70
2021/03/20 10:43:00;;;;;;;5.20;4.80;;;;;;;0.63;61.04;96020.25;5012941;28;20503;-69
2021/03/20 10:45:31;;;;;;;5.75;5.28;;;;;;;0.48;62.36;96016.19;5012839;28;20030;-73
2021/03/20 10:48:27;;;;;;;5.37;4.87;;;;;;;-0.45;64.44;96036.38;5000879;28;20504;-72
2021/03/20 10:50:59;;;;;;;6.22;5.43;;;;;;;0.19;63.09;96037.84;4990485;28;20031;-73
2021/03/20 10:53:28;;;;;;;6.15;5.45;;;;;;;0.25;62.54;96016.03;4982882;28;20045;-72
2021/03/20 10:55:59;;;;;;;6.22;5.60;;;;;;;0.78;63.95;96031.16;5012642;28;20033;-72
2021/03/20 10:58:39;;;;;;;5.45;4.95;;;;;;;1.97;59.71;96026.81;5014266;28;20026;-70
2021/03/20 11:01:05;;;;;;;5.13;4.72;;;;;;;1.65;55.66;96031.56;5013023;28;20034;-71
2021/03/20 11:03:35;;;;;;;4.55;4.18;;;;;;;1.55;55.52;96010.34;4994734;28;20034;-70
2021/03/20 11:06:16;;;;;;;4.03;3.72;;;;;;;1.11;54.37;96022.06;5012504;28;20496;-71
2021/03/20 11:08:43;;;;;;;6.97;4.53;;;;;;;1.64;53.26;96008.19;5012183;28;20030;-71
2021/03/20 11:11:30;;;;;;;3.70;3.40;;;;;;;1.18;51.51;96028.84;5012474;28;20514;-71
2021/03/20 11:14:22;;;;;;;4.07;3.78;;;;;;;1.71;51.62;96030.66;5012379;28;20041;-73
2021/03/20 11:17:10;;;;;;;4.73;4.33;;;;;;;2.51;50.47;96022.22;4990622;28;20030;-72
2021/03/20 11:19:39;;;;;;;4.85;4.45;;;;;;;3.15;52.49;96016.09;5011451;28;20762;-71
2021/03/20 11:22:37;;;;;;;4.00;3.70;;;;;;;1.43;56.23;96033.91;4977305;28;20391;-73
2021/03/20 11:25:15;;;;;;;4.25;3.85;;;;;;;-0.10;57.73;96005.34;4995289;28;20515;-66
2021/03/20 11:27:40;;;;;;;4.80;4.40;;;;;;;0.89;57.54;96022.56;4994473;28;20092;-71
2021/03/20 11:30:17;;;;;;;5.40;4.90;;;;;;;1.09;58.15;96038.03;4993888;28;20492;-69
2021/03/20 11:32:44;;;;;;;5.25;4.75;;;;;;;1.36;57.45;96025.34;5011811;28;20496;-70
2021/03/20 11:35:27;;;;;;;6.25;5.75;;;;;;;1.15;61.00;96042.38;5012025;28;20076;-68
2021/03/20 11:37:54;;;;;;;6.00;4.97;;;;;;;1.12;60.50;96021.03;5011768;28;20038;-69
2021/03/20 11:40:30;;;;;;;5.78;4.43;;;;;;;1.28;58.75;96041.41;5013600;28;20091;-66
2021/03/20 11:43:05;;;;;;;6.40;5.72;;;;;;;1.36;58.17;96011.44;5011915;28;20085;-67
2021/03/20 11:45:34;;;;;;;6.00;5.50;;;;;;;1.61;57.44;96037.50;4995764;28;20046;-67
2021/03/20 11:48:12;;;;;;;6.15;5.63;;;;;;;0.54;60.17;96001.44;5003363;28;20038;-68
2021/03/20 11:50:39;;;;;;;5.60;4.00;;;;;;;0.59;58.04;96032.19;5001951;28;20400;-70
2021/03/20 11:53:22;;;;;;;4.13;3.83;;;;;;;-0.01;61.20;96033.59;4995264;28;20129;-67
2021/03/20 11:55:52;;;;;;;4.45;4.07;;;;;;;0.43;57.83;96041.44;5011102;28;20507;-71
2021/03/20 11:58:25;;;;;;;4.65;3.42;;;;;;;-0.18;56.17;96001.16;4995649;28;20096;-74
2021/03/20 12:00:54;;;;;;;3.22;3.03;;;;;;;0.36;56.17;96040.69;4973338;28;20409;-81
2021/03/20 12:03:22;;;;;;;4.07;3.15;;;;;;;0.58;53.93;96041.06;5007113;28;20070;-75
2021/03/20 12:05:50;;;;;;;4.28;3.30;;;;;;;1.20;53.52;96012.88;5011962;28;20042;-75
2021/03/20 12:08:27;;;;;;;4.22;3.90;;;;;;;1.84;52.50;96027.03;5011407;28;20073;-75
2021/03/20 12:10:56;;;;;;;4.32;3.20;;;;;;;1.42;52.25;96013.97;5011640;28;20115;-75